createdAt,value
2023-04-29T00:01:03.723Z,97344.44
2023-04-29T00:03:39.600Z,97371.53
2023-04-29T00:06:06.871Z,97369.66
2023-04-29T00:08:33.532Z,97372.09
2023-04-29T00:11:06.791Z,97359.22
2023-04-29T00:13:41.132Z,97354.19
2023-04-29T00:16:18.578Z,97366.03
2023-04-29T00:18:45.343Z,97362.44
2023-04-29T00:21:12.194Z,97347.63
2023-04-29T00:23:45.848Z,97351.25
2023-04-29T00:26:12.432Z,97366.22
2023-04-29T00:28:39.109Z,97355.41
2023-04-29T00:31:12.316Z,97374.44
2023-04-29T00:33:40.795Z,97370.97
2023-04-29T00:36:08.651Z,97360.72
2023-04-29T00:38:42.447Z,97362.84
2023-04-29T00:41:09.322Z,97354.66
2023-04-29T00:43:35.987Z,97347.59
2023-04-29T00:46:09.624Z,97331.53
2023-04-29T00:48:36.361Z,97347.22
2023-04-29T00:51:04.108Z,97335.09
2023-04-29T00:53:38.421Z,97343.44
2023-04-29T00:56:07.470Z,97287.03
2023-04-29T00:58:35.244Z,97345.88
2023-04-29T01:01:10.405Z,97350.19
2023-04-29T01:03:37.628Z,97339.25
2023-04-29T01:06:36.296Z,97358.19
2023-04-29T01:09:28.346Z,97345.75
2023-04-29T01:12:33.456Z,97352.78
2023-04-29T01:15:12.715Z,97348.72
2023-04-29T01:17:57.435Z,97350.41
2023-04-29T01:20:25.936Z,97350.66
2023-04-29T01:22:52.573Z,97348.66
2023-04-29T01:25:26.412Z,97337.03
2023-04-29T01:28:02.685Z,97324.44
2023-04-29T01:31:02.369Z,97333.75
2023-04-29T01:33:44.185Z,97336.88
2023-04-29T01:36:30.420Z,97336.16
2023-04-29T01:39:12.206Z,97342.88
2023-04-29T01:41:48.437Z,97342.06
2023-04-29T01:44:24.407Z,97324.50
2023-04-29T01:47:00.454Z,97338.81
2023-04-29T01:49:28.215Z,97336.34
2023-04-29T01:51:55.172Z,97312.34
2023-04-29T01:54:31.239Z,97336.59
2023-04-29T01:56:58.796Z,97332.50
2023-04-29T01:59:25.524Z,97320.59
2023-04-29T02:01:59.225Z,97335.59
2023-04-29T02:04:26.171Z,97293.91
2023-04-29T02:06:52.997Z,97315.09
2023-04-29T02:09:26.532Z,97325.09
2023-04-29T02:12:14.165Z,97337.31
2023-04-29T02:14:47.479Z,97338.44
2023-04-29T02:17:14.656Z,97337.81
2023-04-29T02:19:41.267Z,97333.22
2023-04-29T02:22:14.419Z,97339.97
2023-04-29T02:24:41.280Z,97327.94
2023-04-29T02:27:07.940Z,97339.97
2023-04-29T02:29:41.364Z,97344.03
2023-04-29T02:32:08.401Z,97349.06
2023-04-29T02:34:35.118Z,97355.72
2023-04-29T02:37:08.186Z,97362.31
2023-04-29T02:39:34.948Z,97351.53
2023-04-29T02:42:01.831Z,97329.69
2023-04-29T02:44:35.286Z,97348.88
2023-04-29T02:47:02.086Z,97358.53
2023-04-29T02:49:28.669Z,97360.94
2023-04-29T02:52:02.190Z,97339.16
2023-04-29T02:54:29.052Z,97362.19
2023-04-29T02:56:55.741Z,97352.44
2023-04-29T02:59:29.358Z,97347.97
2023-04-29T03:01:57.030Z,97357.16
2023-04-29T03:04:24.075Z,97335.09
2023-04-29T03:06:58.305Z,97345.31
2023-04-29T03:09:25.442Z,97335.97
2023-04-29T03:12:12.232Z,97337.59
2023-04-29T03:14:39.068Z,97353.16
2023-04-29T03:17:05.776Z,97328.47
2023-04-29T03:19:39.481Z,97350.03
2023-04-29T03:22:08.334Z,97345.63
2023-04-29T03:24:34.962Z,97364.38
2023-04-29T03:27:08.114Z,97347.06
2023-04-29T03:29:34.808Z,97341.72
2023-04-29T03:32:02.721Z,97320.00
2023-04-29T03:34:37.354Z,97340.47
2023-04-29T03:37:03.951Z,97353.06
2023-04-29T03:39:32.591Z,97344.31
2023-04-29T03:42:09.383Z,97346.78
2023-04-29T03:44:36.354Z,97352.88
2023-04-29T03:47:03.090Z,97366.94
2023-04-29T03:49:37.373Z,97359.75
2023-04-29T03:52:04.808Z,97368.34
2023-04-29T03:54:32.034Z,97356.81
2023-04-29T03:57:05.422Z,97335.19
2023-04-29T03:59:32.177Z,97366.00
2023-04-29T04:01:59.104Z,97354.53
2023-04-29T04:04:33.538Z,97365.72
2023-04-29T04:07:00.973Z,97337.44
2023-04-29T04:09:27.626Z,97349.84
2023-04-29T04:12:01.229Z,97347.53
2023-04-29T04:14:34.620Z,97352.94
2023-04-29T04:17:08.229Z,97337.69
2023-04-29T04:19:35.062Z,97341.31
2023-04-29T04:22:03.865Z,97348.94
2023-04-29T04:24:37.466Z,97341.75
2023-04-29T04:27:04.372Z,97344.59
2023-04-29T04:29:31.156Z,97346.63
2023-04-29T04:32:04.563Z,97353.53
2023-04-29T04:34:31.459Z,97343.00
2023-04-29T04:36:58.181Z,97342.31
2023-04-29T04:39:31.334Z,97300.00
2023-04-29T04:41:58.513Z,97328.91
2023-04-29T04:44:25.156Z,97319.72
2023-04-29T04:46:59.338Z,97338.63
2023-04-29T04:49:29.269Z,97340.19
2023-04-29T04:51:56.037Z,97332.03
2023-04-29T04:54:29.167Z,97311.84
2023-04-29T04:56:56.066Z,97325.00
2023-04-29T04:59:22.795Z,97324.69
2023-04-29T05:01:59.468Z,97326.56
2023-04-29T05:04:26.664Z,97326.91
2023-04-29T05:06:53.506Z,97313.22
2023-04-29T05:09:27.117Z,97292.66
2023-04-29T05:12:00.145Z,97335.88
2023-04-29T05:14:40.304Z,97336.91
2023-04-29T05:17:06.949Z,97331.22
2023-04-29T05:19:33.664Z,97319.09
2023-04-29T05:22:07.232Z,97322.41
2023-04-29T05:24:34.280Z,97328.78
2023-04-29T05:27:00.952Z,97304.69
2023-04-29T05:29:36.228Z,97322.31
2023-04-29T05:32:03.061Z,97316.88
2023-04-29T05:34:29.776Z,97303.28
2023-04-29T05:37:04.313Z,97327.47
2023-04-29T05:39:30.932Z,97318.00
2023-04-29T05:41:59.038Z,97332.22
2023-04-29T05:44:32.163Z,97332.72
2023-04-29T05:46:59.125Z,97332.06
2023-04-29T05:49:25.767Z,97333.28
2023-04-29T05:51:59.027Z,97308.59
2023-04-29T05:54:26.030Z,97347.69
2023-04-29T05:56:52.687Z,97340.94
2023-04-29T05:59:25.981Z,97339.44
2023-04-29T06:01:52.607Z,97337.53
2023-04-29T06:04:19.816Z,97327.09
2023-04-29T06:06:53.048Z,97336.16
2023-04-29T06:09:27.661Z,97324.53
2023-04-29T06:12:07.990Z,97340.63
2023-04-29T06:14:41.404Z,97315.97
2023-04-29T06:17:22.106Z,97331.53
2023-04-29T06:19:48.886Z,97301.44
2023-04-29T06:22:17.361Z,97304.31
2023-04-29T06:24:53.758Z,97317.41
2023-04-29T06:27:20.551Z,97312.97
2023-04-29T06:29:47.250Z,97299.06
2023-04-29T06:32:21.033Z,97319.41
2023-04-29T06:34:47.786Z,97312.78
2023-04-29T06:37:14.516Z,97288.53
2023-04-29T06:39:55.826Z,97303.44
2023-04-29T06:42:22.648Z,97301.28
2023-04-29T06:44:56.314Z,97278.56
2023-04-29T06:47:23.583Z,97289.31
2023-04-29T06:49:50.469Z,97290.84
2023-04-29T06:52:24.249Z,97286.44
2023-04-29T06:54:51.385Z,97276.91
2023-04-29T06:57:18.442Z,97291.03
2023-04-29T06:59:52.248Z,97292.22
2023-04-29T07:02:19.229Z,97268.03
2023-04-29T07:04:45.999Z,97280.75
2023-04-29T07:07:19.163Z,97284.59
2023-04-29T07:09:46.081Z,97263.09
2023-04-29T07:12:26.079Z,97276.66
2023-04-29T07:15:00.010Z,97276.09
2023-04-29T07:17:36.929Z,97270.00
2023-04-29T07:20:04.433Z,97257.13
2023-04-29T07:22:31.193Z,97284.03
2023-04-29T07:25:04.898Z,97278.88
2023-04-29T07:27:34.372Z,97272.41
2023-04-29T07:30:01.430Z,97280.72
2023-04-29T07:32:34.976Z,97273.59
2023-04-29T07:35:01.758Z,97288.31
2023-04-29T07:37:28.407Z,97272.50
2023-04-29T07:40:02.469Z,97267.81
2023-04-29T07:42:29.131Z,97263.81
2023-04-29T07:44:55.994Z,97282.66
2023-04-29T07:47:29.205Z,97226.19
2023-04-29T07:49:57.408Z,97262.63
2023-04-29T07:52:24.090Z,97266.94
2023-04-29T07:54:56.922Z,97258.38
2023-04-29T07:57:23.855Z,97261.34
2023-04-29T07:59:54.448Z,97258.34
2023-04-29T08:02:28.071Z,97263.09
2023-04-29T08:04:56.573Z,97260.78
2023-04-29T08:07:23.699Z,97258.97
2023-04-29T08:09:56.829Z,97269.81
2023-04-29T08:12:31.223Z,97253.22
2023-04-29T08:15:12.060Z,97246.56
2023-04-29T08:17:38.925Z,97241.50
2023-04-29T08:20:07.578Z,97260.06
2023-04-29T08:22:41.147Z,97253.38
2023-04-29T08:25:08.545Z,97250.25
2023-04-29T08:27:35.950Z,97244.03
2023-04-29T08:30:08.870Z,97211.13
2023-04-29T08:32:35.938Z,97217.56
2023-04-29T08:35:03.339Z,97228.34
2023-04-29T08:37:36.922Z,97234.94
2023-04-29T08:40:04.109Z,97200.38
2023-04-29T08:42:44.664Z,97206.13
2023-04-29T08:45:15.884Z,97232.16
2023-04-29T08:47:43.747Z,97235.03
2023-04-29T08:50:17.924Z,97224.06
2023-04-29T08:52:44.565Z,97214.91
2023-04-29T08:55:11.319Z,97185.09
2023-04-29T08:57:49.903Z,97204.44
2023-04-29T09:00:18.586Z,97207.50
2023-04-29T09:02:49.798Z,97211.81
2023-04-29T09:05:22.831Z,97213.38
2023-04-29T09:07:51.937Z,97201.13
2023-04-29T09:10:24.465Z,97182.00
2023-04-29T09:12:58.215Z,97199.25
2023-04-29T09:15:32.005Z,97179.09
2023-04-29T09:18:45.635Z,97177.56
2023-04-29T09:22:32.071Z,97133.09
2023-04-29T09:25:19.338Z,97183.19
2023-04-29T09:27:46.635Z,97183.94
2023-04-29T09:30:16.012Z,97127.84
2023-04-29T09:32:52.164Z,97151.41
2023-04-29T09:42:45.098Z,97161.84
2023-04-29T09:52:49.940Z,97134.88
2023-04-29T09:55:22.822Z,97148.41
2023-04-29T09:57:56.842Z,97140.72
2023-04-29T10:00:24.565Z,97136.94
2023-04-29T10:02:54.133Z,97139.59
2023-04-29T10:05:29.827Z,97130.53
2023-04-29T10:07:58.271Z,97128.25
2023-04-29T10:10:25.777Z,97124.59
2023-04-29T10:13:07.820Z,97127.34
2023-04-29T10:15:50.413Z,97118.41
2023-04-29T10:18:36.883Z,97127.34
2023-04-29T10:21:06.866Z,97117.63
2023-04-29T10:23:34.226Z,97117.28
2023-04-29T10:26:10.564Z,97122.78
2023-04-29T10:28:39.749Z,97115.69
2023-04-29T10:31:07.829Z,97105.72
2023-04-29T10:33:42.760Z,97114.22
2023-04-29T10:36:10.385Z,97114.31
2023-04-29T10:38:41.787Z,97105.59
2023-04-29T10:41:23.822Z,97107.75
2023-04-29T10:43:53.925Z,97107.28
2023-04-29T10:46:22.977Z,97112.28
2023-04-29T10:49:01.807Z,97116.03
2023-04-29T10:51:42.004Z,97111.56
2023-04-29T10:54:23.725Z,97101.34
2023-04-29T10:56:52.449Z,97099.78
2023-04-29T10:59:48.904Z,97098.19
2023-04-29T11:02:16.156Z,97088.09
2023-04-29T11:05:15.741Z,97096.16
2023-04-29T11:07:44.441Z,97100.09
2023-04-29T11:10:13.334Z,97097.03
2023-04-29T11:12:46.971Z,97092.28
2023-04-29T11:15:18.304Z,97092.81
2023-04-29T11:17:53.830Z,97066.94
2023-04-29T11:20:20.598Z,97080.44
2023-04-29T11:22:51.413Z,97091.66
2023-04-29T11:25:25.848Z,97096.63
2023-04-29T11:27:55.451Z,97076.59
2023-04-29T11:30:22.521Z,97072.59
2023-04-29T11:32:57.811Z,97075.00
2023-04-29T11:35:24.659Z,97065.31
2023-04-29T11:37:52.796Z,97074.47
2023-04-29T11:40:25.862Z,97071.84
2023-04-29T11:42:52.629Z,97064.16
2023-04-29T11:45:19.828Z,97062.28
2023-04-29T11:47:55.889Z,97041.03
2023-04-29T11:50:23.491Z,97056.78
2023-04-29T11:53:03.920Z,97052.50
2023-04-29T11:55:37.059Z,97048.00
2023-04-29T11:58:11.816Z,97046.31
2023-04-29T12:00:38.699Z,97045.31
2023-04-29T12:03:24.263Z,97043.13
2023-04-29T12:05:52.212Z,97038.44
2023-04-29T12:08:32.721Z,97041.63
2023-04-29T12:11:00.222Z,97027.84
2023-04-29T12:13:30.142Z,97030.84
2023-04-29T12:16:05.941Z,97027.66
2023-04-29T12:18:33.147Z,97029.09
2023-04-29T12:20:59.820Z,97030.09
2023-04-29T12:23:36.959Z,97024.00
2023-04-29T12:26:04.132Z,97022.59
2023-04-29T12:28:30.879Z,97022.50
2023-04-29T12:31:05.917Z,97020.53
2023-04-29T12:33:32.881Z,97025.00
2023-04-29T12:35:59.534Z,97018.78
2023-04-29T12:38:34.631Z,97018.16
2023-04-29T12:41:02.134Z,97010.47
2023-04-29T12:43:42.839Z,97004.38
2023-04-29T12:46:13.062Z,97006.09
2023-04-29T12:48:41.855Z,96997.84
2023-04-29T12:51:18.602Z,96995.63
2023-04-29T12:53:51.692Z,97000.06
2023-04-29T12:56:25.663Z,96983.44
2023-04-29T12:58:52.840Z,96994.91
2023-04-29T13:01:19.813Z,96990.19
2023-04-29T13:03:54.626Z,96987.81
2023-04-29T13:06:21.765Z,96977.97
2023-04-29T13:08:48.356Z,96983.81
2023-04-29T13:11:22.252Z,96990.38
2023-04-29T13:13:48.919Z,96986.91
2023-04-29T13:16:15.864Z,96977.53
2023-04-29T13:19:08.140Z,96975.22
2023-04-29T13:21:36.082Z,96970.00
2023-04-29T13:24:09.552Z,96957.34
2023-04-29T13:26:36.371Z,96959.75
2023-04-29T13:29:03.197Z,96963.22
2023-04-29T13:31:36.553Z,96956.03
2023-04-29T13:34:03.773Z,96944.41
2023-04-29T13:36:30.411Z,96961.63
2023-04-29T13:39:03.570Z,96957.81
2023-04-29T13:41:36.679Z,96949.84
2023-04-29T13:44:23.492Z,96945.06
2023-04-29T13:47:09.493Z,96940.25
2023-04-29T14:02:43.901Z,96932.16
2023-04-29T14:05:23.866Z,96937.00
2023-04-29T14:07:51.855Z,96950.03
2023-04-29T14:11:11.785Z,96892.88
2023-04-29T14:13:38.631Z,96915.31
2023-04-29T14:16:15.335Z,96937.88
2023-04-29T14:18:42.116Z,96925.41
2023-04-29T14:21:15.322Z,96919.50
2023-04-29T14:23:42.249Z,96859.75
2023-04-29T14:26:29.958Z,96929.69
2023-04-29T14:29:00.369Z,96881.97
2023-04-29T14:31:31.453Z,96908.06
2023-04-29T14:34:01.615Z,96907.06
2023-04-29T14:36:28.806Z,96909.91
2023-04-29T14:39:14.108Z,96917.13
2023-04-29T14:41:43.332Z,96908.59
2023-04-29T14:44:12.807Z,96891.94
2023-04-29T14:46:39.906Z,96896.94
2023-04-29T14:49:06.881Z,96918.41
2023-04-29T14:51:33.811Z,96874.06
2023-04-29T14:54:00.818Z,96855.59
2023-04-29T14:56:29.185Z,96915.19
2023-04-29T14:58:56.708Z,96918.97
2023-04-29T15:01:23.721Z,96908.31
2023-04-29T15:03:50.652Z,96888.03
2023-04-29T15:06:17.436Z,96905.03
2023-04-29T15:08:44.185Z,96905.16
2023-04-29T15:11:10.981Z,96910.63
2023-04-29T15:13:38.030Z,96909.69
2023-04-29T15:16:05.127Z,96897.97
2023-04-29T15:18:32.094Z,96901.28
2023-04-29T15:20:59.405Z,96902.06
2023-04-29T15:23:26.128Z,96897.50
2023-04-29T15:25:53.352Z,96903.44
2023-04-29T15:28:20.135Z,96896.69
2023-04-29T15:30:47.140Z,96904.44
2023-04-29T15:33:14.216Z,96890.50
2023-04-29T15:35:47.444Z,96901.38
2023-04-29T15:38:14.351Z,96905.91
2023-04-29T15:40:41.070Z,96901.00
2023-04-29T15:43:07.924Z,96891.66
2023-04-29T15:45:34.704Z,96890.56
2023-04-29T15:48:01.375Z,96898.47
2023-04-29T15:50:28.380Z,96873.53
2023-04-29T15:52:56.689Z,96892.81
2023-04-29T15:55:29.510Z,96891.63
2023-04-29T15:57:56.327Z,96898.69
2023-04-29T16:00:22.909Z,96898.22
2023-04-29T16:03:03.481Z,96901.19
2023-04-29T16:05:38.377Z,96907.41
2023-04-29T16:08:06.038Z,96886.88
2023-04-29T16:10:32.783Z,96899.28
2023-04-29T16:12:59.738Z,96895.03
2023-04-29T16:15:27.515Z,96903.69
2023-04-29T16:17:54.445Z,96903.75
2023-04-29T16:20:21.190Z,96886.34
2023-04-29T16:22:48.018Z,96900.81
2023-04-29T16:25:15.222Z,96912.19
2023-04-29T16:27:41.894Z,96912.56
2023-04-29T16:30:09.331Z,96904.41
2023-04-29T16:32:36.099Z,96916.97
2023-04-29T16:35:02.772Z,96913.81
2023-04-29T16:37:29.842Z,96915.00
2023-04-29T16:39:56.792Z,96912.16
2023-04-29T16:42:23.503Z,96914.13
2023-04-29T16:44:51.038Z,96923.94
2023-04-29T16:47:20.502Z,96922.84
2023-04-29T16:49:47.509Z,96915.34
2023-04-29T16:52:14.651Z,96914.59
2023-04-29T16:54:41.925Z,96922.28
2023-04-29T16:57:08.660Z,96932.22
2023-04-29T16:59:35.920Z,96931.25
2023-04-29T17:02:03.244Z,96938.31
2023-04-29T17:04:33.069Z,96936.88
2023-04-29T17:07:01.487Z,96934.94
2023-04-29T17:09:28.366Z,96927.72
2023-04-29T17:11:55.318Z,96934.91
2023-04-29T17:14:22.021Z,96940.50
2023-04-29T17:16:48.979Z,96930.22
2023-04-29T17:19:16.690Z,96945.94
2023-04-29T17:21:50.452Z,96947.59
2023-04-29T17:24:17.969Z,96944.06
2023-04-29T17:26:45.536Z,96945.63
2023-04-29T17:29:19.308Z,96941.09
2023-04-29T17:31:53.303Z,96942.34
2023-04-29T17:34:24.043Z,96942.91
2023-04-29T17:36:58.280Z,96943.81
2023-04-29T17:39:25.219Z,96950.50
2023-04-29T17:41:58.307Z,96953.00
2023-04-29T17:44:25.615Z,96941.50
2023-04-29T17:46:58.641Z,96947.66
2023-04-29T17:49:32.320Z,96954.47
2023-04-29T17:52:00.496Z,96957.38
2023-04-29T17:54:29.157Z,96949.28
2023-04-29T17:57:03.419Z,96959.97
2023-04-29T17:59:30.854Z,96962.78
2023-04-29T18:01:57.717Z,96968.59
2023-04-29T18:04:24.713Z,96970.44
2023-04-29T18:06:51.487Z,96968.75
2023-04-29T18:09:24.281Z,96974.16
2023-04-29T18:11:51.025Z,96965.44
2023-04-29T18:14:24.244Z,96984.13
2023-04-29T18:16:51.865Z,96981.03
2023-04-29T18:19:18.552Z,96970.25
2023-04-29T18:21:52.394Z,96983.53
2023-04-29T18:24:18.997Z,96984.94
2023-04-29T18:26:46.004Z,96983.34
2023-04-29T18:29:19.428Z,96984.25
2023-04-29T18:31:46.315Z,96989.34
2023-04-29T18:34:13.453Z,96982.72
2023-04-29T18:36:40.195Z,96982.94
2023-04-29T18:39:07.228Z,96984.63
2023-04-29T18:41:40.278Z,96987.34
2023-04-29T18:44:06.962Z,96981.72
2023-04-29T18:46:33.800Z,96983.13
2023-04-29T18:49:07.380Z,96976.00
2023-04-29T18:51:34.034Z,96980.59
2023-04-29T18:54:00.626Z,96980.69
2023-04-29T18:56:34.261Z,96993.75
2023-04-29T18:59:07.256Z,96985.00
2023-04-29T19:01:40.359Z,96985.81
2023-04-29T19:04:20.265Z,96993.53
2023-04-29T19:06:53.334Z,96991.47
2023-04-29T19:09:26.221Z,96995.84
2023-04-29T19:11:59.370Z,96984.09
2023-04-29T19:14:26.942Z,96981.28
2023-04-29T19:17:01.378Z,96986.53
2023-04-29T19:19:34.263Z,96990.94
2023-04-29T19:22:01.280Z,96998.94
2023-04-29T19:24:28.037Z,96993.09
2023-04-29T19:27:01.191Z,96986.50
2023-04-29T19:29:27.966Z,96993.09
2023-04-29T19:31:54.809Z,96982.41
2023-04-29T19:34:28.219Z,96990.59
2023-04-29T19:36:55.240Z,96983.13
2023-04-29T19:39:28.199Z,96989.72
2023-04-29T19:41:56.090Z,96982.97
2023-04-29T19:44:29.177Z,96981.41
2023-04-29T19:46:56.171Z,96982.06
2023-04-29T19:49:22.861Z,96988.38
2023-04-29T19:51:57.343Z,96989.59
2023-04-29T19:54:24.018Z,96999.06
2023-04-29T19:56:50.893Z,96981.94
2023-04-29T19:59:24.289Z,96985.19
2023-04-29T20:01:57.787Z,96994.19
2023-04-29T20:04:32.154Z,96993.69
2023-04-29T20:06:58.803Z,96991.06
2023-04-29T20:09:33.217Z,96988.16
2023-04-29T20:11:59.979Z,96989.06
2023-04-29T20:14:27.254Z,96988.31
2023-04-29T20:17:00.784Z,96993.47
2023-04-29T20:19:28.290Z,96987.34
2023-04-29T20:21:54.908Z,96973.72
2023-04-29T20:24:28.287Z,96989.06
2023-04-29T20:26:54.911Z,96981.59
2023-04-29T20:29:28.118Z,96986.75
2023-04-29T20:32:02.305Z,96987.06
2023-04-29T20:34:28.819Z,96992.22
2023-04-29T20:36:55.672Z,96994.97
2023-04-29T20:39:29.324Z,96990.22
2023-04-29T20:42:05.106Z,96992.44
2023-04-29T20:44:32.228Z,96997.34
2023-04-29T20:47:05.099Z,96995.25
2023-04-29T20:49:32.335Z,96997.75
2023-04-29T20:52:06.310Z,96967.06
2023-04-29T20:54:41.543Z,96993.75
2023-04-29T20:57:15.245Z,96999.72
2023-04-29T20:59:49.130Z,97003.78
2023-04-29T21:02:29.188Z,96997.88
2023-04-29T21:05:02.256Z,97001.94
2023-04-29T21:07:29.063Z,97000.34
2023-04-29T21:09:56.174Z,97003.06
2023-04-29T21:12:24.816Z,97001.97
2023-04-29T21:14:51.564Z,97009.00
2023-04-29T21:17:18.453Z,96985.84
2023-04-29T21:19:45.104Z,97002.53
2023-04-29T21:22:11.867Z,96997.72
2023-04-29T21:24:38.608Z,96987.78
2023-04-29T21:27:05.227Z,97001.50
2023-04-29T21:29:32.054Z,96986.44
2023-04-29T21:31:59.052Z,97002.59
2023-04-29T21:34:26.159Z,96997.50
2023-04-29T21:36:52.984Z,96994.78
2023-04-29T21:39:19.617Z,96996.41
2023-04-29T21:41:46.939Z,96997.25
2023-04-29T21:44:27.184Z,96990.22
2023-04-29T21:46:53.976Z,97004.25
2023-04-29T21:49:20.961Z,97007.75
2023-04-29T21:51:48.152Z,96996.16
2023-04-29T21:54:14.743Z,96995.66
2023-04-29T21:56:41.429Z,97004.25
2023-04-29T21:59:08.190Z,97008.03
2023-04-29T22:01:48.605Z,97015.03
2023-04-29T22:04:17.109Z,97001.00
2023-04-29T22:06:43.907Z,97008.56
2023-04-29T22:09:10.625Z,97006.41
2023-04-29T22:11:45.209Z,97005.88
2023-04-29T22:14:11.850Z,97004.50
2023-04-29T22:16:38.641Z,97007.22
2023-04-29T22:19:12.111Z,97005.03
2023-04-29T22:21:47.047Z,97012.88
2023-04-29T22:24:20.305Z,96985.94
2023-04-29T22:26:53.060Z,97006.41
2023-04-29T22:29:20.932Z,96996.47
2023-04-29T22:31:54.135Z,96983.78
2023-04-29T22:34:21.007Z,97006.66
2023-04-29T22:36:47.588Z,97000.75
2023-04-29T22:39:21.309Z,96995.63
2023-04-29T22:41:48.000Z,96998.31
2023-04-29T22:44:15.522Z,96998.59
2023-04-29T22:46:49.184Z,96982.16
2023-04-29T22:49:22.009Z,96993.47
2023-04-29T22:51:48.592Z,96990.78
2023-04-29T22:54:15.810Z,96984.84
2023-04-29T22:56:49.126Z,96984.84
2023-04-29T22:59:15.719Z,96982.69
2023-04-29T23:01:49.084Z,96978.91
2023-04-29T23:04:23.560Z,96969.50
2023-04-29T23:06:57.964Z,96979.16
2023-04-29T23:09:25.092Z,96966.22
2023-04-29T23:11:57.963Z,96972.41
2023-04-29T23:14:31.152Z,96968.63
2023-04-29T23:17:03.956Z,96977.25
2023-04-29T23:19:37.130Z,96971.31
2023-04-29T23:22:07.270Z,96980.19
2023-04-29T23:24:44.060Z,96973.97
2023-04-29T23:27:17.939Z,96971.28
2023-04-29T23:29:44.721Z,96972.59
2023-04-29T23:32:11.326Z,96951.84
2023-04-29T23:34:44.925Z,96970.72
2023-04-29T23:37:25.247Z,96983.09
2023-04-29T23:39:52.357Z,96979.88
2023-04-29T23:42:19.247Z,96987.41
2023-04-29T23:44:52.162Z,96979.34
2023-04-29T23:47:18.765Z,96972.09
2023-04-29T23:49:52.192Z,96954.28
2023-04-29T23:52:26.147Z,96981.50
2023-04-29T23:54:52.962Z,96977.19
2023-04-29T23:57:25.918Z,96965.34
2023-04-29T23:59:53.359Z,96975.56
